Time;durP1;ratioP1;P1;durP2;ratioP2;P2;SDS_P1;SDS_P2;PMS_P1;PMS_P2;Temp;Humidity;BMP_temperature;BMP_pressure;BME280_temperature;BME280_humidity;BME280_pressure;Samples;Min_cycle;Max_cycle;Signal;HPM_P1;HPM_P2
2021/07/27 00:00:38;;;;;;;27.27;7.40;;;16.20;59.60;;;;;;5088879;28;20063;-65
2021/07/27 00:03:05;;;;;;;26.67;8.30;;;16.20;60.00;;;;;;5086691;28;20083;-65
2021/07/27 00:05:32;;;;;;;25.23;7.57;;;16.20;60.60;;;;;;5088151;28;20095;-65
2021/07/27 00:07:58;;;;;;;23.60;7.82;;;16.10;60.90;;;;;;5080791;28;20108;-66
2021/07/27 00:10:27;;;;;;;23.92;7.63;;;16.10;61.20;;;;;;5083529;28;20028;-65
2021/07/27 00:12:54;;;;;;;29.00;7.78;;;16.10;61.60;;;;;;5085268;28;20081;-65
2021/07/27 00:15:21;;;;;;;32.35;7.18;;;16.10;62.50;;;;;;5082781;28;20471;-65
2021/07/27 00:17:47;;;;;;;27.38;8.23;;;16.10;62.90;;;;;;5084149;28;20028;-66
2021/07/27 00:20:14;;;;;;;31.40;8.48;;;16.10;63.60;;;;;;5087042;28;20065;-65
2021/07/27 00:22:41;;;;;;;20.30;8.40;;;16.00;64.50;;;;;;5082283;28;20035;-65
2021/07/27 00:25:09;;;;;;;29.55;8.25;;;16.00;64.90;;;;;;5084015;28;20036;-65
2021/07/27 00:27:36;;;;;;;22.17;7.82;;;16.00;66.30;;;;;;5081823;28;20028;-65
2021/07/27 00:30:06;;;;;;;36.35;8.45;;;16.00;67.00;;;;;;5084808;28;20021;-66
2021/07/27 00:32:35;;;;;;;26.13;7.95;;;16.00;67.50;;;;;;5084142;28;20004;-65
2021/07/27 00:35:03;;;;;;;27.63;8.30;;;16.00;67.80;;;;;;5085315;28;20059;-65
2021/07/27 00:37:32;;;;;;;24.45;6.55;;;16.00;68.30;;;;;;5083693;28;20023;-65
2021/07/27 00:39:59;;;;;;;26.75;7.10;;;16.00;68.10;;;;;;5080991;28;20024;-65
2021/07/27 00:42:26;;;;;;;30.90;8.02;;;16.00;68.10;;;;;;5085174;28;20169;-65
2021/07/27 00:44:53;;;;;;;26.20;7.47;;;16.00;68.00;;;;;;5082496;28;20109;-65
2021/07/27 00:47:19;;;;;;;26.85;6.88;;;16.00;68.10;;;;;;5086496;28;20020;-65
2021/07/27 00:49:46;;;;;;;27.05;7.97;;;15.90;68.10;;;;;;5082738;28;20075;-65
2021/07/27 00:52:13;;;;;;;22.40;6.65;;;15.90;68.10;;;;;;5077401;28;20391;-65
2021/07/27 00:54:40;;;;;;;20.42;7.45;;;15.90;68.00;;;;;;5079352;28;20017;-65
2021/07/27 00:57:07;;;;;;;32.28;8.13;;;15.90;68.30;;;;;;5087300;28;20478;-65
2021/07/27 00:59:33;;;;;;;25.50;7.95;;;15.90;68.70;;;;;;5081481;28;20016;-65
2021/07/27 01:02:00;;;;;;;36.70;10.30;;;15.90;68.80;;;;;;5086473;28;20038;-65
2021/07/27 01:04:26;;;;;;;27.35;8.95;;;15.80;69.50;;;;;;5081463;28;20043;-63
2021/07/27 01:06:54;;;;;;;26.92;7.60;;;15.80;69.80;;;;;;5076164;28;20115;-65
2021/07/27 01:09:20;;;;;;;24.95;6.57;;;15.80;70.30;;;;;;5080419;28;20036;-65
2021/07/27 01:11:47;;;;;;;33.65;7.97;;;15.80;70.60;;;;;;5079215;28;20024;-66
2021/07/27 01:14:13;;;;;;;25.92;7.82;;;15.70;71.00;;;;;;5079095;28;20086;-65
2021/07/27 01:16:40;;;;;;;22.65;6.70;;;15.70;71.30;;;;;;5078287;28;20066;-65
2021/07/27 01:43:27;;;;;;;31.33;8.98;;;15.70;75.50;;;;;;5083176;28;20036;-65
2021/07/27 01:45:54;;;;;;;24.17;8.18;;;15.70;75.80;;;;;;5080691;28;20098;-65
2021/07/27 01:48:20;;;;;;;33.45;9.20;;;15.70;75.80;;;;;;5084461;28;20020;-65
2021/07/27 01:50:47;;;;;;;26.67;8.77;;;15.60;76.00;;;;;;5081486;28;20027;-65
2021/07/27 01:53:15;;;;;;;24.08;8.10;;;15.60;76.10;;;;;;5081390;28;20024;-65
2021/07/27 01:55:42;;;;;;;37.28;9.00;;;15.70;76.40;;;;;;5080170;28;20394;-65
2021/07/27 01:58:08;;;;;;;28.58;7.20;;;15.70;76.40;;;;;;5081396;28;20056;-65
2021/07/27 02:00:35;;;;;;;24.17;7.32;;;15.60;76.70;;;;;;5083077;28;20016;-65
2021/07/27 02:03:01;;;;;;;33.00;7.78;;;15.60;77.00;;;;;;5080212;28;20147;-65
2021/07/27 02:05:28;;;;;;;27.60;8.57;;;15.60;77.20;;;;;;5081752;28;20020;-65
2021/07/27 02:07:55;;;;;;;27.05;7.60;;;15.50;77.10;;;;;;5082115;28;20029;-65
2021/07/27 02:10:23;;;;;;;40.45;8.77;;;15.60;77.40;;;;;;5081211;28;20020;-65
2021/07/27 02:13:02;;;;;;;22.17;7.13;;;15.60;77.50;;;;;;5078426;28;20107;-65
2021/07/27 02:15:44;;;;;;;24.58;6.97;;;15.60;77.70;;;;;;5080930;28;20031;-67
2021/07/27 02:18:11;;;;;;;32.70;14.00;;;15.50;77.90;;;;;;5086716;28;20019;-65
2021/07/27 02:20:38;;;;;;;84.25;46.80;;;15.50;78.10;;;;;;5083038;28;20070;-65
2021/07/27 02:23:06;;;;;;;34.08;13.77;;;15.50;78.10;;;;;;5078079;28;20023;-65
2021/07/27 02:25:33;;;;;;;33.22;11.20;;;15.50;78.20;;;;;;5080358;28;20125;-65
2021/07/27 02:27:59;;;;;;;27.13;7.80;;;15.50;78.30;;;;;;5084830;28;20423;-66
2021/07/27 02:30:27;;;;;;;30.25;7.72;;;15.50;78.30;;;;;;5081745;28;20107;-65
2021/07/27 02:32:53;;;;;;;24.05;7.28;;;15.50;78.10;;;;;;5080054;28;20016;-65
2021/07/27 02:35:24;;;;;;;27.15;8.23;;;15.50;78.40;;;;;;5079776;28;20028;-65
2021/07/27 02:37:50;;;;;;;34.58;7.28;;;15.40;78.40;;;;;;5083618;28;20020;-65
2021/07/27 02:40:17;;;;;;;31.60;10.02;;;15.40;78.50;;;;;;5085963;28;20142;-65
2021/07/27 02:42:44;;;;;;;31.25;9.38;;;15.40;78.80;;;;;;5081337;28;20088;-65
2021/07/27 02:45:13;;;;;;;25.75;8.93;;;15.40;78.80;;;;;;5083476;28;20036;-65
2021/07/27 02:47:43;;;;;;;30.02;8.50;;;15.40;78.90;;;;;;5079024;28;20027;-65
2021/07/27 02:50:10;;;;;;;28.40;7.57;;;15.40;78.60;;;;;;5082828;28;20066;-65
2021/07/27 02:52:39;;;;;;;24.10;6.30;;;15.40;78.90;;;;;;5079954;28;20107;-65
2021/07/27 02:55:06;;;;;;;23.25;8.77;;;15.40;79.10;;;;;;5081211;28;20095;-65
2021/07/27 02:57:32;;;;;;;53.63;9.98;;;15.40;79.10;;;;;;5079430;28;20024;-65
2021/07/27 03:00:00;;;;;;;36.30;10.43;;;15.30;79.30;;;;;;5083151;28;20017;-65
2021/07/27 03:02:35;;;;;;;31.30;7.32;;;15.30;79.10;;;;;;5084717;28;20051;-65
2021/07/27 03:05:02;;;;;;;;;;;15.30;79.60;;;;;;5085222;28;20036;-65
2021/07/27 03:07:48;;;;;;;28.17;8.65;;;15.30;79.60;;;;;;5084280;28;19912;-65
2021/07/27 03:10:19;;;;;;;34.08;7.53;;;15.30;79.60;;;;;;5082455;28;20074;-65
2021/07/27 03:12:50;;;;;;;36.38;10.07;;;15.30;79.70;;;;;;5085108;28;20036;-65
2021/07/27 03:15:17;;;;;;;29.05;7.88;;;15.30;80.00;;;;;;5085610;28;20135;-65
2021/07/27 03:17:44;;;;;;;24.83;7.78;;;15.20;80.00;;;;;;5083000;28;20028;-66
2021/07/27 03:20:13;;;;;;;91.45;53.45;;;15.20;80.20;;;;;;5085092;28;20099;-65
2021/07/27 03:22:41;;;;;;;67.78;32.10;;;15.20;80.20;;;;;;5084076;28;20077;-65
2021/07/27 03:25:14;;;;;;;44.22;14.50;;;15.20;80.50;;;;;;5085633;28;20037;-65
2021/07/27 03:27:40;;;;;;;31.27;8.40;;;15.20;80.70;;;;;;5083721;28;20020;-65
2021/07/27 03:30:09;;;;;;;34.75;8.35;;;15.20;80.70;;;;;;5085623;28;20055;-65
2021/07/27 03:32:36;;;;;;;29.48;10.00;;;15.20;80.60;;;;;;5082252;28;20017;-65
2021/07/27 03:35:04;;;;;;;39.67;11.52;;;15.20;80.60;;;;;;5084037;28;20044;-65
2021/07/27 03:37:33;;;;;;;29.27;9.45;;;15.20;80.90;;;;;;5084073;28;20031;-65
2021/07/27 03:39:59;;;;;;;31.10;7.97;;;15.10;81.10;;;;;;5083600;28;20017;-65
2021/07/27 03:42:26;;;;;;;27.55;7.75;;;15.10;81.20;;;;;;5080660;28;20506;-66
2021/07/27 03:44:57;;;;;;;43.78;9.43;;;15.10;81.10;;;;;;5087617;28;20501;-65
2021/07/27 03:47:24;;;;;;;28.35;7.45;;;15.10;81.00;;;;;;5085534;28;20031;-65
2021/07/27 03:49:51;;;;;;;33.10;8.85;;;15.10;81.00;;;;;;5085477;28;20074;-65
2021/07/27 03:52:17;;;;;;;32.80;9.90;;;15.10;81.10;;;;;;5080616;28;20033;-65
2021/07/27 03:54:44;;;;;;;29.55;10.55;;;15.10;81.00;;;;;;5085367;28;20511;-65
2021/07/27 03:57:10;;;;;;;36.30;11.05;;;15.10;81.00;;;;;;5085774;28;20020;-65
2021/07/27 03:59:37;;;;;;;33.05;7.63;;;15.00;81.30;;;;;;5087702;28;20032;-66
2021/07/27 04:02:04;;;;;;;31.35;7.47;;;15.00;81.40;;;;;;5087711;28;20069;-65
2021/07/27 04:04:35;;;;;;;35.65;7.88;;;15.00;81.10;;;;;;5081640;28;20054;-64
2021/07/27 04:07:01;;;;;;;34.88;7.18;;;15.00;81.40;;;;;;5084971;28;20017;-64
2021/07/27 04:09:28;;;;;;;40.72;18.05;;;15.00;81.50;;;;;;5079830;28;20068;-64
2021/07/27 04:11:55;;;;;;;52.33;22.33;;;15.00;81.40;;;;;;5082890;28;20036;-66
2021/07/27 04:14:23;;;;;;;25.67;9.60;;;15.00;81.00;;;;;;5080932;28;20374;-67
2021/07/27 04:16:49;;;;;;;30.77;8.02;;;14.90;81.30;;;;;;5085210;28;20105;-66
2021/07/27 04:19:16;;;;;;;39.92;8.95;;;14.90;81.30;;;;;;5087956;28;20016;-67
2021/07/27 04:21:43;;;;;;;26.42;8.23;;;14.90;81.60;;;;;;5083064;28;20028;-67
2021/07/27 04:24:10;;;;;;;34.53;8.50;;;14.90;81.50;;;;;;5087128;28;20487;-66
2021/07/27 04:26:36;;;;;;;20.17;7.25;;;14.90;81.30;;;;;;5082213;28;20073;-67
2021/07/27 04:29:03;;;;;;;40.30;13.00;;;14.90;81.00;;;;;;5086043;28;20020;-66
2021/07/27 04:31:30;;;;;;;79.30;48.88;;;14.90;80.90;;;;;;5085539;28;20077;-66
2021/07/27 04:33:56;;;;;;;36.25;12.48;;;14.90;81.10;;;;;;5086598;28;20104;-66
2021/07/27 04:36:23;;;;;;;23.23;8.32;;;14.80;80.90;;;;;;5087792;28;20027;-66
2021/07/27 04:38:49;;;;;;;25.20;6.72;;;14.80;81.10;;;;;;5084898;28;20082;-65
2021/07/27 04:41:17;;;;;;;27.17;6.53;;;14.80;81.10;;;;;;5084726;28;20024;-66
2021/07/27 04:43:43;;;;;;;38.38;7.68;;;14.80;81.10;;;;;;5080614;28;20044;-65
2021/07/27 04:46:10;;;;;;;18.08;7.95;;;14.80;80.90;;;;;;5083220;28;20486;-67
2021/07/27 04:48:38;;;;;;;19.10;6.85;;;14.80;81.10;;;;;;5081741;28;20016;-66
2021/07/27 04:51:05;;;;;;;28.35;6.95;;;14.80;81.00;;;;;;5079634;28;20019;-66
2021/07/27 04:53:35;;;;;;;18.27;6.80;;;14.70;81.20;;;;;;5081000;28;20020;-66
2021/07/27 04:56:03;;;;;;;27.38;8.02;;;14.70;81.00;;;;;;5081443;28;20016;-65
2021/07/27 04:58:29;;;;;;;20.73;7.13;;;14.70;81.40;;;;;;5082396;28;20058;-66
2021/07/27 05:01:05;;;;;;;14.95;5.00;;;14.70;81.40;;;;;;5080392;28;20027;-65
2021/07/27 05:03:32;;;;;;;20.48;5.60;;;14.70;81.40;;;;;;5080998;28;20135;-66
2021/07/27 05:05:58;;;;;;;19.98;6.40;;;14.70;81.40;;;;;;5082046;28;20025;-66
2021/07/27 05:08:25;;;;;;;14.85;4.32;;;14.70;81.60;;;;;;5082070;28;20087;-66
2021/07/27 05:10:52;;;;;;;20.55;6.00;;;14.70;81.50;;;;;;5081691;28;20012;-67
2021/07/27 05:13:18;;;;;;;17.98;5.53;;;14.70;81.40;;;;;;5079965;28;20035;-66
2021/07/27 05:15:45;;;;;;;22.23;5.15;;;14.70;81.30;;;;;;5077203;28;20093;-66
2021/07/27 05:18:11;;;;;;;15.32;5.15;;;14.70;81.20;;;;;;5078981;28;20103;-66
2021/07/27 05:20:38;;;;;;;26.58;6.55;;;14.70;80.70;;;;;;5080306;28;20021;-66
2021/07/27 05:23:04;;;;;;;15.57;5.28;;;14.70;80.40;;;;;;5081541;28;20035;-65
2021/07/27 05:25:31;;;;;;;19.70;5.15;;;14.70;80.30;;;;;;5079856;28;20032;-66
2021/07/27 05:27:57;;;;;;;13.65;5.00;;;14.70;80.00;;;;;;5081212;28;20028;-66
2021/07/27 05:30:24;;;;;;;23.27;5.82;;;14.60;80.20;;;;;;5081054;28;20024;-66
2021/07/27 05:32:50;;;;;;;18.02;5.68;;;14.60;80.20;;;;;;5079414;28;20016;-67
2021/07/27 05:35:17;;;;;;;14.35;5.93;;;14.60;80.20;;;;;;5078092;28;20435;-66
2021/07/27 05:37:44;;;;;;;16.85;4.97;;;14.60;80.20;;;;;;5080965;28;21002;-66
2021/07/27 05:40:11;;;;;;;22.05;5.13;;;14.60;79.90;;;;;;5077979;28;20016;-66
2021/07/27 05:43:17;;;;;;;20.52;5.28;;;14.50;79.80;;;;;;5079970;28;20021;-66
2021/07/27 05:46:23;;;;;;;15.80;5.75;;;14.50;80.10;;;;;;5074110;28;20536;-66
2021/07/27 05:49:31;;;;;;;26.35;6.53;;;14.50;80.20;;;;;;5075082;28;20119;-66
2021/07/27 05:52:37;;;;;;;18.52;5.53;;;14.50;80.50;;;;;;5073823;28;20199;-66
2021/07/27 05:55:43;;;;;;;20.92;6.32;;;14.40;80.50;;;;;;5078710;28;20020;-65
2021/07/27 05:58:49;;;;;;;16.65;4.82;;;14.40;80.70;;;;;;5082810;28;20026;-67
2021/07/27 06:01:55;;;;;;;30.83;8.38;;;14.40;80.60;;;;;;5080142;28;20038;-66
2021/07/27 06:05:01;;;;;;;13.30;5.85;;;14.30;81.00;;;;;;5082584;28;20081;-66
2021/07/27 06:08:07;;;;;;;22.63;6.55;;;14.30;81.20;;;;;;5075832;28;20027;-66
2021/07/27 06:11:13;;;;;;;15.55;4.82;;;14.30;81.20;;;;;;5081056;28;20405;-66
2021/07/27 06:13:40;;;;;;;20.85;7.72;;;14.30;81.10;;;;;;5073896;28;20035;-68
2021/07/27 06:16:07;;;;;;;12.38;4.00;;;14.30;81.20;;;;;;5080992;28;20035;-67
2021/07/27 06:18:34;;;;;;;10.65;4.18;;;14.30;80.90;;;;;;5080599;28;20017;-68
2021/07/27 06:21:01;;;;;;;32.25;21.63;;;14.20;81.20;;;;;;5080483;28;20047;-67
2021/07/27 06:24:07;;;;;;;12.32;5.47;;;14.20;81.30;;;;;;5078430;28;20034;-68
2021/07/27 06:27:13;;;;;;;10.52;4.32;;;14.20;81.70;;;;;;5074337;28;20040;-66
2021/07/27 06:29:40;;;;;;;14.88;3.75;;;14.10;82.10;;;;;;5076787;28;20085;-66
2021/07/27 06:32:08;;;;;;;10.52;3.63;;;14.10;82.20;;;;;;5077107;28;20020;-68
2021/07/27 06:34:35;;;;;;;11.57;4.00;;;14.10;82.50;;;;;;5077473;28;20379;-68
2021/07/27 06:37:01;;;;;;;12.48;4.20;;;14.10;82.80;;;;;;5074015;28;20544;-68
2021/07/27 06:39:30;;;;;;;11.25;4.75;;;14.10;82.90;;;;;;5074967;28;20474;-68
2021/07/27 06:41:56;;;;;;;8.27;3.75;;;14.10;83.00;;;;;;5057148;28;20025;-67
2021/07/27 06:44:23;;;;;;;7.97;3.55;;;14.10;82.70;;;;;;5076858;28;20562;-66
2021/07/27 06:46:49;;;;;;;12.68;4.60;;;14.00;83.40;;;;;;5075206;28;20029;-67
2021/07/27 06:49:16;;;;;;;7.60;4.03;;;14.00;83.90;;;;;;5072286;28;20483;-68
2021/07/27 06:51:42;;;;;;;13.18;5.75;;;14.10;84.00;;;;;;5056792;28;20029;-68
2021/07/27 06:54:09;;;;;;;9.95;4.50;;;14.00;83.80;;;;;;5078871;28;20041;-68
2021/07/27 06:56:39;;;;;;;9.95;3.47;;;14.10;84.20;;;;;;5076745;28;20021;-68
2021/07/27 06:59:05;;;;;;;7.65;4.78;;;14.00;84.50;;;;;;5074581;28;20024;-67
2021/07/27 07:01:32;;;;;;;12.32;5.20;;;14.10;84.50;;;;;;5074784;28;20027;-68
2021/07/27 07:03:58;;;;;;;12.15;4.10;;;14.10;84.80;;;;;;5076517;28;20040;-68
2021/07/27 07:06:25;;;;;;;13.45;4.90;;;14.10;84.70;;;;;;5075402;28;20115;-68
2021/07/27 07:08:51;;;;;;;8.52;4.60;;;14.10;85.50;;;;;;5077249;28;20419;-71
2021/07/27 07:11:18;;;;;;;16.25;9.18;;;14.20;85.50;;;;;;5073899;28;20017;-67
2021/07/27 07:13:45;;;;;;;19.75;10.50;;;14.20;85.70;;;;;;5077527;28;20490;-68
2021/07/27 07:16:13;;;;;;;8.30;4.38;;;14.20;85.80;;;;;;5077790;28;20021;-68
2021/07/27 07:18:39;;;;;;;10.40;4.82;;;14.30;85.70;;;;;;5074041;28;20481;-67
2021/07/27 07:21:07;;;;;;;12.45;4.28;;;14.30;85.70;;;;;;5075226;28;20062;-68
2021/07/27 07:24:13;;;;;;;12.05;4.57;;;14.30;85.80;;;;;;5066291;28;20094;-66
2021/07/27 07:26:39;;;;;;;9.43;4.10;;;14.40;85.80;;;;;;5068388;28;20046;-68
2021/07/27 07:29:06;;;;;;;12.70;4.15;;;14.40;85.60;;;;;;5076663;28;20103;-68
2021/07/27 07:31:32;;;;;;;14.32;3.75;;;14.40;85.60;;;;;;5072687;28;20647;-68
2021/07/27 07:33:59;;;;;;;7.80;3.72;;;14.50;86.00;;;;;;5073744;28;20390;-68
2021/07/27 07:36:25;;;;;;;10.85;4.22;;;14.50;86.40;;;;;;5073908;28;20051;-67
2021/07/27 07:38:52;;;;;;;16.20;3.60;;;14.50;86.70;;;;;;5074288;28;21013;-68
2021/07/27 07:41:18;;;;;;;13.77;4.53;;;14.60;86.20;;;;;;5075231;28;20027;-68
2021/07/27 07:43:48;;;;;;;9.68;3.97;;;14.60;86.30;;;;;;5075997;28;20086;-68
2021/07/27 07:46:14;;;;;;;11.75;5.18;;;14.60;86.10;;;;;;5075737;28;20024;-67
2021/07/27 07:48:40;;;;;;;18.92;4.50;;;14.70;85.90;;;;;;5079159;28;20024;-68
2021/07/27 07:51:07;;;;;;;15.07;4.60;;;14.70;85.90;;;;;;5077008;28;20471;-67
2021/07/27 07:53:34;;;;;;;13.38;4.50;;;14.80;86.30;;;;;;5073898;28;20017;-67
2021/07/27 07:56:00;;;;;;;11.25;5.75;;;14.90;86.40;;;;;;5074693;28;20025;-67
2021/07/27 07:58:27;;;;;;;15.52;4.47;;;14.90;86.30;;;;;;5081090;28;20869;-67
2021/07/27 08:00:55;;;;;;;10.05;4.03;;;15.00;86.30;;;;;;5076614;28;20387;-67
2021/07/27 08:03:22;;;;;;;12.23;4.70;;;15.00;86.30;;;;;;5081685;28;20036;-67
2021/07/27 08:05:48;;;;;;;9.00;3.55;;;15.10;86.50;;;;;;5080314;28;20115;-67
2021/07/27 08:08:16;;;;;;;9.05;3.60;;;15.10;86.30;;;;;;5077346;28;20543;-67
2021/07/27 08:10:43;;;;;;;23.42;9.70;;;15.20;86.10;;;;;;5076514;28;20065;-66
2021/07/27 08:13:09;;;;;;;24.33;12.05;;;15.20;85.80;;;;;;5083159;28;20013;-68
2021/07/27 08:15:36;;;;;;;20.17;7.60;;;15.20;85.90;;;;;;5079604;28;20069;-66
2021/07/27 08:18:03;;;;;;;14.23;4.88;;;15.30;86.20;;;;;;5079534;28;20559;-67
2021/07/27 08:20:30;;;;;;;10.10;4.43;;;15.30;86.10;;;;;;5075768;28;20031;-67
2021/07/27 08:22:58;;;;;;;9.20;4.38;;;15.30;85.90;;;;;;5079501;28;20186;-67
2021/07/27 08:25:25;;;;;;;8.60;3.42;;;15.30;85.80;;;;;;5075564;28;20069;-67
2021/07/27 08:27:51;;;;;;;8.85;3.47;;;15.30;85.90;;;;;;5082667;28;20592;-68
2021/07/27 08:30:18;;;;;;;10.68;4.60;;;15.30;86.10;;;;;;5071192;28;20031;-67
2021/07/27 08:32:49;;;;;;;15.43;4.45;;;15.40;86.20;;;;;;5076313;28;20063;-67
2021/07/27 08:35:18;;;;;;;17.40;4.20;;;15.50;86.50;;;;;;5078276;28;20046;-67
2021/07/27 08:38:21;;;;;;;15.07;4.43;;;15.50;86.50;;;;;;5078582;28;20027;-66
2021/07/27 08:40:50;;;;;;;23.55;5.13;;;15.60;86.50;;;;;;5059167;28;20024;-66
2021/07/27 08:43:19;;;;;;;16.77;4.18;;;15.60;86.60;;;;;;5083476;28;20087;-67
2021/07/27 08:45:46;;;;;;;14.57;3.17;;;15.70;86.20;;;;;;5076585;28;20034;-67
2021/07/27 08:48:15;;;;;;;15.02;3.72;;;15.70;85.80;;;;;;5075465;28;20040;-67
2021/07/27 08:50:44;;;;;;;14.50;3.08;;;15.80;85.40;;;;;;5062434;28;20425;-67
2021/07/27 08:53:12;;;;;;;15.88;3.35;;;15.80;84.90;;;;;;5078909;28;20046;-67
2021/07/27 08:55:38;;;;;;;23.27;4.75;;;15.90;85.30;;;;;;5075154;28;20024;-68
2021/07/27 08:58:05;;;;;;;17.88;4.47;;;15.90;84.00;;;;;;5077765;28;20028;-67
2021/07/27 09:00:32;;;;;;;16.63;4.53;;;16.00;84.00;;;;;;5075813;28;20028;-67
2021/07/27 09:03:13;;;;;;;21.33;4.60;;;16.00;83.20;;;;;;5078625;28;20059;-67
2021/07/27 09:05:40;;;;;;;16.70;4.78;;;16.00;82.80;;;;;;5077900;28;20028;-70
2021/07/27 09:08:09;;;;;;;37.42;17.42;;;16.10;82.50;;;;;;5078835;28;20021;-67
2021/07/27 09:10:36;;;;;;;28.90;9.32;;;16.10;82.10;;;;;;5076914;28;20020;-67
2021/07/27 09:13:11;;;;;;;17.60;4.80;;;16.10;81.80;;;;;;5080399;28;20525;-67
2021/07/27 09:15:42;;;;;;;17.25;4.28;;;16.20;81.40;;;;;;5079101;28;20052;-66
2021/07/27 09:18:16;;;;;;;24.40;5.18;;;16.20;80.90;;;;;;5079394;28;20390;-67
2021/07/27 09:20:47;;;;;;;15.63;3.90;;;16.20;80.80;;;;;;5065734;28;20118;-67
2021/07/27 09:23:22;;;;;;;21.10;4.38;;;16.20;80.90;;;;;;5080308;28;20012;-67
2021/07/27 09:25:50;;;;;;;24.25;4.90;;;16.30;80.60;;;;;;5078920;28;20139;-66
2021/07/27 09:28:18;;;;;;;14.48;3.83;;;16.30;80.30;;;;;;5074691;28;20112;-67
2021/07/27 09:31:24;;;;;;;18.10;4.25;;;16.40;80.20;;;;;;5071868;28;20111;-66
2021/07/27 09:34:30;;;;;;;25.52;5.68;;;16.40;79.40;;;;;;5072836;28;20032;-67
2021/07/27 09:37:07;;;;;;;22.30;4.25;;;16.50;78.20;;;;;;5076090;28;20017;-67
2021/07/27 09:39:35;;;;;;;23.52;4.20;;;16.60;77.10;;;;;;5078382;28;20028;-67
2021/07/27 09:42:02;;;;;;;19.60;6.00;;;16.60;76.80;;;;;;5075884;28;20031;-67
2021/07/27 09:44:30;;;;;;;30.95;7.65;;;16.60;76.50;;;;;;5073384;28;20044;-66
2021/07/27 09:46:58;;;;;;;21.15;3.80;;;16.60;75.80;;;;;;5073989;28;20031;-67
2021/07/27 09:49:26;;;;;;;20.98;3.95;;;16.70;75.90;;;;;;5074642;28;20031;-68
2021/07/27 09:52:32;;;;;;;17.90;4.68;;;16.60;76.00;;;;;;5069412;28;20124;-67
2021/07/27 09:55:38;;;;;;;26.58;4.55;;;16.70;76.40;;;;;;5075617;28;20029;-67
2021/07/27 09:58:44;;;;;;;26.00;4.38;;;16.80;76.30;;;;;;5073297;28;20020;-67
2021/07/27 10:01:53;;;;;;;27.13;4.65;;;17.00;75.90;;;;;;5075586;28;20034;-67
2021/07/27 10:04:26;;;;;;;19.45;3.50;;;17.00;75.00;;;;;;5075702;28;20414;-67
2021/07/27 10:06:53;;;;;;;29.60;4.57;;;17.10;74.10;;;;;;5075013;28;20031;-67
2021/07/27 10:09:27;;;;;;;25.42;4.25;;;17.20;72.90;;;;;;5077997;28;20101;-67
2021/07/27 10:12:08;;;;;;;21.60;5.35;;;17.30;73.20;;;;;;5070985;28;20025;-68
2021/07/27 10:14:46;;;;;;;32.08;9.50;;;17.40;72.10;;;;;;5070526;28;20044;-67
2021/07/27 10:17:16;;;;;;;30.65;17.40;;;17.50;70.90;;;;;;5075269;28;20431;-67
2021/07/27 10:19:56;;;;;;;20.50;5.47;;;17.60;69.80;;;;;;5075039;28;20020;-66
2021/07/27 10:22:31;;;;;;;19.63;3.55;;;17.80;68.80;;;;;;5075358;28;20777;-67
2021/07/27 10:25:37;;;;;;;24.08;4.05;;;17.90;67.50;;;;;;5067392;28;20028;-67
2021/07/27 10:28:44;;;;;;;13.18;3.67;;;17.90;66.90;;;;;;5071717;28;20356;-66
2021/07/27 10:31:33;;;;;;;22.70;4.97;;;18.00;67.00;;;;;;5074155;28;20024;-67
2021/07/27 10:34:40;;;;;;;18.70;5.53;;;18.20;66.80;;;;;;5076840;28;20043;-67
2021/07/27 10:37:49;;;;;;;15.70;3.53;;;18.30;65.70;;;;;;5073145;28;20047;-68
2021/07/27 10:40:55;;;;;;;19.60;3.25;;;18.40;65.20;;;;;;5077466;28;20036;-67
2021/07/27 10:44:05;;;;;;;12.25;2.35;;;18.50;64.50;;;;;;5073181;28;20036;-67
2021/07/27 10:46:36;;;;;;;24.15;2.85;;;18.50;63.70;;;;;;5072277;28;20482;-68
2021/07/27 10:49:03;;;;;;;19.05;4.93;;;18.40;63.70;;;;;;5076278;28;20024;-68
2021/07/27 10:51:37;;;;;;;22.77;4.18;;;18.30;64.00;;;;;;5072632;28;20028;-67
2021/07/27 10:54:05;;;;;;;20.98;4.35;;;18.30;64.30;;;;;;5074089;28;20024;-67
2021/07/27 10:56:32;;;;;;;16.10;2.80;;;18.20;64.30;;;;;;5074916;28;20036;-67
2021/07/27 10:59:00;;;;;;;23.70;5.03;;;18.20;64.30;;;;;;5076020;28;20091;-68
2021/07/27 11:01:31;;;;;;;21.00;5.65;;;18.10;63.80;;;;;;5072965;28;20028;-68
2021/07/27 11:04:11;;;;;;;15.50;3.00;;;18.10;64.30;;;;;;5074537;28;20093;-67
2021/07/27 11:06:38;;;;;;;24.42;4.15;;;18.00;63.60;;;;;;5073014;28;20025;-68
2021/07/27 11:09:05;;;;;;;11.73;2.67;;;18.00;63.50;;;;;;5075966;28;20029;-67
2021/07/27 11:11:43;;;;;;;21.30;4.60;;;18.00;64.20;;;;;;5076297;28;20017;-66
2021/07/27 11:14:09;;;;;;;61.25;22.33;;;18.10;64.50;;;;;;5075464;28;20021;-68
2021/07/27 11:16:42;;;;;;;16.92;7.45;;;18.10;64.20;;;;;;5074649;28;20017;-67
2021/07/27 11:19:26;;;;;;;21.90;4.53;;;18.20;64.40;;;;;;5059073;28;20931;-68
2021/07/27 11:21:55;;;;;;;17.65;3.03;;;18.20;64.90;;;;;;5080110;28;20032;-67
2021/07/27 11:24:23;;;;;;;21.95;3.33;;;18.20;65.00;;;;;;5077265;28;20029;-68
2021/07/27 11:26:51;;;;;;;20.73;4.15;;;18.20;65.10;;;;;;5077818;28;20091;-68
2021/07/27 11:29:18;;;;;;;13.30;2.83;;;18.20;65.40;;;;;;5060591;28;20482;-67
2021/07/27 11:31:46;;;;;;;15.55;2.67;;;18.10;65.50;;;;;;5086220;28;20024;-67
2021/07/27 11:34:24;;;;;;;10.18;1.60;;;18.10;63.80;;;;;;5081897;28;20047;-67
2021/07/27 11:36:52;;;;;;;9.98;1.60;;;18.20;63.70;;;;;;5082650;28;20023;-67
2021/07/27 11:39:19;;;;;;;12.50;3.03;;;18.40;63.20;;;;;;5081275;28;20032;-67
2021/07/27 11:42:01;;;;;;;12.35;1.30;;;18.50;62.60;;;;;;5080745;28;20294;-68
2021/07/27 11:44:28;;;;;;;13.85;2.05;;;18.70;62.60;;;;;;5083745;28;20423;-67
2021/07/27 11:46:55;;;;;;;12.45;2.20;;;18.80;62.20;;;;;;5082734;28;20099;-67
2021/07/27 11:49:22;;;;;;;3.67;1.50;;;18.90;62.00;;;;;;5084219;28;20056;-67
2021/07/27 11:51:48;;;;;;;6.75;1.48;;;19.00;61.70;;;;;;5081495;28;20031;-67
2021/07/27 11:54:25;;;;;;;6.18;1.13;;;19.10;61.00;;;;;;5081527;28;20749;-67
2021/07/27 11:56:51;;;;;;;5.82;1.75;;;19.10;60.80;;;;;;5084950;28;20406;-67
2021/07/27 11:59:30;;;;;;;6.03;1.70;;;19.00;60.90;;;;;;5081296;28;20063;-67
2021/07/27 12:01:57;;;;;;;15.50;6.28;;;18.90;60.70;;;;;;5077161;28;20086;-67
2021/07/27 12:04:24;;;;;;;7.25;2.25;;;18.90;60.90;;;;;;5077567;28;20051;-67
2021/07/27 12:06:53;;;;;;;9.88;1.77;;;18.80;61.50;;;;;;5082417;28;20483;-67
2021/07/27 12:09:23;;;;;;;9.35;1.98;;;18.80;61.60;;;;;;5080812;28;20021;-68
2021/07/27 12:11:51;;;;;;;6.18;1.90;;;18.80;62.00;;;;;;5077802;28;20008;-67
2021/07/27 12:14:19;;;;;;;8.38;1.48;;;18.90;61.00;;;;;;5080305;28;20486;-67
2021/07/27 12:16:50;;;;;;;8.30;1.60;;;18.90;61.30;;;;;;5080556;28;20022;-67
2021/07/27 12:19:17;;;;;;;5.47;1.50;;;18.90;61.10;;;;;;5080317;28;20120;-67
2021/07/27 12:21:44;;;;;;;8.57;2.55;;;18.80;61.00;;;;;;5079772;28;20028;-67
2021/07/27 12:24:10;;;;;;;12.35;3.65;;;18.80;61.60;;;;;;5079143;28;20040;-68
2021/07/27 12:26:41;;;;;;;11.98;3.00;;;18.80;61.60;;;;;;5084632;28;20479;-67
2021/07/27 12:29:07;;;;;;;13.57;2.80;;;18.70;61.90;;;;;;5064314;28;20101;-67
2021/07/27 12:31:34;;;;;;;9.10;2.78;;;18.60;62.30;;;;;;5079483;28;20103;-67
2021/07/27 12:34:00;;;;;;;11.35;2.53;;;18.60;62.60;;;;;;5080772;28;20020;-67
2021/07/27 12:36:27;;;;;;;16.65;2.67;;;18.60;63.10;;;;;;5085375;28;20026;-67
2021/07/27 12:38:53;;;;;;;12.73;1.73;;;18.50;63.10;;;;;;5078934;28;20107;-67
2021/07/27 12:41:20;;;;;;;10.50;2.10;;;18.50;63.00;;;;;;5078375;28;20028;-67
2021/07/27 12:43:47;;;;;;;11.73;2.10;;;18.40;62.80;;;;;;5081187;28;20024;-67
2021/07/27 12:46:13;;;;;;;8.95;2.50;;;18.40;62.70;;;;;;5085918;28;20043;-68
2021/07/27 12:48:40;;;;;;;8.05;1.58;;;18.40;62.70;;;;;;5084742;28;20030;-67
2021/07/27 12:51:06;;;;;;;14.43;2.53;;;18.30;62.80;;;;;;5078814;28;20052;-68
2021/07/27 12:53:33;;;;;;;8.48;1.73;;;18.30;63.00;;;;;;5083588;28;20032;-67
2021/07/27 12:55:59;;;;;;;16.33;3.65;;;18.30;62.90;;;;;;5079432;28;20445;-67
2021/07/27 12:58:26;;;;;;;6.32;2.38;;;18.30;63.30;;;;;;5079355;28;20031;-67
2021/07/27 13:00:52;;;;;;;9.07;2.08;;;18.20;63.90;;;;;;5079442;28;20032;-67
2021/07/27 13:03:19;;;;;;;13.27;2.80;;;18.20;63.60;;;;;;5085200;28;20040;-67
2021/07/27 13:05:46;;;;;;;11.40;2.58;;;18.20;63.80;;;;;;5080252;28;20040;-67
2021/07/27 13:08:13;;;;;;;9.52;2.47;;;18.20;64.30;;;;;;5066698;28;20052;-67
2021/07/27 13:10:40;;;;;;;13.07;2.60;;;18.20;64.30;;;;;;5086206;28;20016;-67
2021/07/27 13:13:06;;;;;;;6.28;2.17;;;18.20;64.20;;;;;;5081446;28;20020;-67
2021/07/27 13:15:33;;;;;;;8.18;1.88;;;18.20;64.40;;;;;;5081302;28;20032;-67
2021/07/27 13:17:59;;;;;;;12.43;2.10;;;18.20;64.50;;;;;;5083076;28;20403;-67
2021/07/27 13:20:26;;;;;;;8.25;2.28;;;18.20;64.60;;;;;;5087736;28;20093;-67
2021/07/27 13:22:52;;;;;;;6.80;2.95;;;18.20;64.60;;;;;;5080949;28;20131;-67